createdAt,value
2023-01-09T14:32:32.194Z,100.00
2023-01-09T14:43:51.813Z,100.00
2023-01-09T15:20:22.066Z,100.00
2023-01-09T15:48:31.407Z,100.00
2023-01-09T15:51:20.059Z,100.00
2023-01-09T16:45:25.503Z,100.00
2023-01-09T16:48:25.081Z,100.00
2023-01-09T16:50:53.709Z,100.00
2023-01-09T17:07:27.925Z,100.00
2023-01-09T17:27:14.341Z,100.00
2023-01-09T17:29:43.270Z,100.00
2023-01-09T17:32:16.871Z,100.00
2023-01-09T17:34:53.685Z,100.00
2023-01-09T17:37:24.912Z,100.00
2023-01-09T17:39:54.336Z,100.00
2023-01-09T17:42:25.705Z,100.00
2023-01-09T17:44:56.433Z,100.00
2023-01-09T17:47:24.717Z,100.00
2023-01-09T17:49:56.093Z,100.00
2023-01-09T17:52:26.082Z,100.00
2023-01-09T17:54:54.299Z,100.00
2023-01-09T17:57:22.690Z,100.00
2023-01-09T17:59:51.062Z,100.00
2023-01-09T18:02:20.223Z,100.00
2023-01-09T18:04:48.686Z,100.00
2023-01-09T18:07:19.415Z,100.00
2023-01-09T18:09:47.770Z,100.00
2023-01-09T18:12:17.984Z,100.00
2023-01-09T18:14:47.848Z,100.00
2023-01-09T18:17:16.351Z,100.00
2023-01-09T18:19:45.293Z,100.00
2023-01-09T18:22:26.166Z,100.00
2023-01-09T18:25:28.856Z,100.00
2023-01-09T18:28:00.335Z,100.00
2023-01-09T18:30:29.124Z,100.00
2023-01-09T18:32:59.943Z,100.00
2023-01-09T18:35:56.787Z,100.00
2023-01-09T18:52:56.866Z,100.00
2023-01-09T18:56:28.139Z,100.00
2023-01-09T18:58:58.496Z,100.00
2023-01-09T19:04:57.610Z,100.00
2023-01-09T19:07:31.454Z,100.00
2023-01-09T19:10:01.743Z,100.00
2023-01-09T19:12:31.747Z,100.00
2023-01-09T19:15:00.096Z,100.00
2023-01-09T19:17:28.548Z,100.00
2023-01-09T19:19:56.780Z,100.00
2023-01-09T19:22:29.944Z,100.00
2023-01-09T19:24:58.212Z,100.00
2023-01-09T19:27:26.485Z,100.00
2023-01-09T19:29:55.233Z,100.00
2023-01-09T19:32:26.621Z,100.00
2023-01-09T19:34:57.349Z,100.00
2023-01-09T19:37:33.207Z,100.00
2023-01-09T19:40:01.493Z,100.00
2023-01-09T19:42:30.172Z,100.00
2023-01-09T19:44:58.405Z,100.00
2023-01-09T19:47:29.892Z,100.00
2023-01-09T19:49:58.144Z,100.00
2023-01-09T19:52:31.166Z,100.00
2023-01-09T19:54:59.527Z,100.00
2023-01-09T20:00:31.413Z,99.96
2023-01-09T20:02:59.937Z,98.80
2023-01-09T20:05:36.849Z,97.99
2023-01-09T20:08:07.429Z,100.00
2023-01-09T20:10:44.837Z,98.71
2023-01-09T20:13:13.837Z,97.61
2023-01-09T20:15:42.257Z,97.47
2023-01-09T20:18:11.228Z,100.00
2023-01-09T20:20:49.284Z,97.96
2023-01-09T20:23:20.509Z,96.50
2023-01-09T20:25:50.945Z,96.17
2023-01-09T20:28:19.258Z,95.01
2023-01-09T20:30:50.232Z,94.58
2023-01-09T20:33:19.512Z,92.86
2023-01-09T20:35:48.398Z,93.51
2023-01-09T20:38:16.879Z,94.02
2023-01-09T20:40:45.308Z,92.69
2023-01-09T20:43:14.154Z,91.62
2023-01-09T20:45:42.647Z,91.41
2023-01-09T20:48:12.060Z,91.96
2023-01-09T20:50:43.413Z,90.59
2023-01-09T20:53:14.121Z,91.60
2023-01-09T20:55:43.480Z,90.71
2023-01-09T20:58:11.796Z,90.55
2023-01-09T21:00:42.475Z,90.39
2023-01-09T21:03:13.111Z,89.64
2023-01-09T21:05:42.316Z,89.20
2023-01-09T21:08:10.678Z,89.85
2023-01-09T21:10:39.148Z,88.83
2023-01-09T21:13:07.358Z,89.77
2023-01-09T21:15:37.990Z,90.88
2023-01-09T21:18:06.502Z,91.24
2023-01-09T21:20:35.725Z,91.11
2023-01-09T21:24:58.383Z,91.16
2023-01-09T21:47:08.369Z,87.96
2023-01-09T22:02:02.029Z,85.11
2023-01-09T22:04:39.884Z,86.02
2023-01-09T22:08:13.893Z,85.45
2023-01-09T22:10:02.993Z,86.97
2023-01-09T22:16:09.882Z,85.68
2023-01-09T22:19:03.359Z,86.85
2023-01-09T22:24:49.366Z,87.81
2023-01-09T22:27:17.516Z,88.94
2023-01-09T22:29:57.787Z,88.89
2023-01-09T22:32:33.841Z,89.68
2023-01-09T22:35:12.631Z,89.93
2023-01-09T22:37:40.919Z,89.63
2023-01-09T22:40:12.542Z,90.43
2023-01-09T22:42:44.276Z,90.66
2023-01-09T22:45:13.272Z,91.02
2023-01-09T22:48:01.021Z,91.40
2023-01-09T22:50:33.162Z,91.95
2023-01-09T22:53:01.995Z,92.12
2023-01-09T22:58:33.868Z,92.30
2023-01-09T23:01:02.193Z,92.66
2023-01-09T23:03:30.779Z,92.79
2023-01-09T23:06:03.125Z,92.74
2023-01-09T23:08:32.556Z,92.21
2023-01-09T23:11:01.851Z,92.83
2023-01-09T23:13:39.358Z,92.01
2023-01-09T23:16:33.928Z,92.49
2023-01-09T23:19:07.292Z,92.79
2023-01-09T23:21:35.740Z,92.86
2023-01-09T23:24:04.553Z,92.59
2023-01-09T23:26:38.852Z,92.64
2023-01-09T23:29:11.084Z,92.48
2023-01-09T23:31:39.520Z,92.82
2023-01-09T23:34:10.566Z,93.15
2023-01-09T23:36:38.809Z,92.84
2023-01-09T23:39:14.564Z,93.22
2023-01-09T23:46:05.474Z,93.43
2023-01-09T23:48:57.286Z,93.82
2023-01-09T23:52:09.695Z,94.76
2023-01-09T23:54:41.558Z,94.36
2023-01-09T23:57:10.875Z,94.67
2023-01-09T23:59:39.625Z,94.96
